Time;durP1;ratioP1;P1;durP2;ratioP2;P2;SDS_P1;SDS_P2;PMS_P1;PMS_P2;Temp;Humidity;BMP_temperature;BMP_pressure;BME280_temperature;BME280_humidity;BME280_pressure;Samples;Min_cycle;Max_cycle;Signal;HPM_P1;HPM_P2
2022/08/18 04:00:22;;;;;;;9.07;8.57;;;20.10;99.90;;;;;;5989966;23;21101;-64
2022/08/18 04:02:49;;;;;;;9.30;8.60;;;20.10;99.90;;;;;;4975757;28;20515;-63
2022/08/18 04:05:15;;;;;;;9.10;8.40;;;20.10;99.90;;;;;;4975495;28;21004;-64
2022/08/18 04:07:42;;;;;;;8.90;8.20;;;20.10;99.90;;;;;;4975626;28;20513;-64
2022/08/18 04:10:10;;;;;;;9.20;8.37;;;20.20;99.90;;;;;;4975275;28;20450;-64
2022/08/18 04:12:38;;;;;;;9.27;8.67;;;20.20;99.90;;;;;;4956517;28;20455;-64
2022/08/18 04:15:06;;;;;;;8.50;7.90;;;20.20;99.90;;;;;;4956308;28;20459;-64
2022/08/18 04:17:34;;;;;;;8.93;8.23;;;20.20;99.90;;;;;;4956328;28;20826;-64
2022/08/18 04:20:01;;;;;;;9.33;8.50;;;20.20;99.90;;;;;;4956049;28;20973;-64
2022/08/18 04:22:27;;;;;;;10.03;9.33;;;20.30;99.90;;;;;;4957281;28;20479;-64
2022/08/18 04:24:55;;;;;;;9.57;8.87;;;20.30;99.90;;;;;;4956351;28;20452;-64
2022/08/18 04:27:22;;;;;;;9.30;8.50;;;20.30;99.90;;;;;;4956602;28;20455;-64
2022/08/18 04:29:50;;;;;;;10.00;9.30;;;20.30;99.90;;;;;;4955961;28;20459;-64
2022/08/18 04:32:18;;;;;;;9.73;9.03;;;20.30;99.90;;;;;;4956076;28;20510;-64
2022/08/18 04:34:46;;;;;;;10.43;9.73;;;20.30;99.90;;;;;;4956121;28;20471;-64
2022/08/18 04:37:14;;;;;;;10.20;9.40;;;20.30;99.90;;;;;;4955964;28;20463;-63
2022/08/18 04:39:41;;;;;;;11.03;9.90;;;20.20;99.90;;;;;;4956081;28;20459;-65
2022/08/18 04:42:08;;;;;;;10.87;10.10;;;20.10;99.90;;;;;;4956059;28;20479;-65
2022/08/18 04:44:36;;;;;;;9.57;8.87;;;20.20;99.90;;;;;;4955920;28;20959;-65
2022/08/18 04:47:04;;;;;;;10.20;9.37;;;20.20;99.90;;;;;;4955964;28;20460;-65
2022/08/18 04:49:32;;;;;;;10.50;9.70;;;20.20;99.90;;;;;;4955846;28;20531;-65
2022/08/18 04:54:45;;;;;;;10.90;10.10;;;20.30;99.90;;;;;;4955681;29;20431;-65
2022/08/18 04:57:15;;;;;;;11.00;10.00;;;20.20;99.90;;;;;;4955686;28;20459;-64
2022/08/18 04:59:43;;;;;;;10.13;9.13;;;20.30;99.90;;;;;;4955814;28;20456;-64
2022/08/18 05:02:11;;;;;;;10.50;9.60;;;20.30;99.90;;;;;;4955275;28;20490;-65
2022/08/18 05:04:40;;;;;;;10.70;9.80;;;20.30;99.90;;;;;;4955644;28;20959;-65
2022/08/18 05:07:10;;;;;;;10.13;9.33;;;20.40;99.90;;;;;;4955791;28;20456;-65
2022/08/18 05:09:38;;;;;;;10.90;10.13;;;20.40;99.90;;;;;;4955909;28;20476;-65
2022/08/18 05:12:06;;;;;;;11.17;10.00;;;20.40;99.90;;;;;;4956961;28;20542;-65
2022/08/18 05:14:34;;;;;;;10.80;9.90;;;20.40;99.90;;;;;;4959374;28;20459;-65
2022/08/18 05:17:03;;;;;;;11.40;10.60;;;20.40;99.90;;;;;;4960038;28;20467;-64
2022/08/18 05:19:31;;;;;;;11.53;10.63;;;20.30;99.90;;;;;;4959585;28;20817;-64
2022/08/18 05:21:59;;;;;;;10.83;10.13;;;20.30;99.90;;;;;;4959209;28;20475;-64
2022/08/18 05:24:29;;;;;;;11.17;10.23;;;20.40;99.90;;;;;;4959310;28;20467;-64
2022/08/18 05:26:56;;;;;;;9.93;9.23;;;20.40;99.90;;;;;;4959341;28;20456;-64
2022/08/18 05:29:23;;;;;;;11.17;9.97;;;20.50;99.90;;;;;;4959435;28;20455;-64
2022/08/18 05:31:51;;;;;;;9.47;8.87;;;20.60;99.90;;;;;;4959510;28;20479;-64
2022/08/18 05:34:21;;;;;;;10.63;9.63;;;20.80;99.90;;;;;;4959104;28;20482;-64
2022/08/18 05:37:02;;;;;;;10.30;9.50;;;20.90;99.90;;;;;;4958988;28;20954;-65
2022/08/18 05:39:39;;;;;;;9.40;8.77;;;21.10;99.90;;;;;;4959319;28;20444;-64
2022/08/18 05:42:11;;;;;;;8.40;7.90;;;21.30;99.90;;;;;;4959618;28;20475;-64
2022/08/18 05:44:41;;;;;;;9.43;8.73;;;21.60;99.90;;;;;;4958873;28;20447;-64
2022/08/18 05:47:12;;;;;;;9.20;8.60;;;21.90;99.90;;;;;;4959105;28;20444;-64
2022/08/18 05:49:42;;;;;;;9.27;8.50;;;22.20;99.90;;;;;;4958753;28;20451;-64
2022/08/18 05:52:14;;;;;;;9.17;8.53;;;22.40;99.90;;;;;;4958888;28;20566;-64
2022/08/18 05:57:43;;;;;;;9.17;8.47;;;23.10;99.90;;;;;;4960491;29;20426;-64
2022/08/18 06:00:11;;;;;;;9.67;8.87;;;23.40;99.90;;;;;;4959179;28;20451;-65
2022/08/18 06:02:46;;;;;;;9.57;8.87;;;23.60;99.90;;;;;;4958736;28;20447;-65
2022/08/18 06:05:15;;;;;;;9.47;8.77;;;23.60;99.90;;;;;;4958753;28;20443;-66
2022/08/18 06:07:45;;;;;;;7.00;6.50;;;23.60;99.90;;;;;;4958690;28;20460;-65
2022/08/18 06:10:15;;;;;;;9.43;8.70;;;23.60;99.90;;;;;;4958250;28;20590;-65
2022/08/18 06:12:44;;;;;;;8.67;8.03;;;23.70;99.90;;;;;;4958358;28;20494;-65
2022/08/18 06:15:15;;;;;;;10.53;9.10;;;23.70;99.90;;;;;;4958244;28;20506;-66
2022/08/18 06:18:29;;;;;;;9.40;8.70;;;23.80;99.90;;;;;;4958499;28;20464;-66
2022/08/18 06:21:11;;;;;;;8.83;8.27;;;23.80;99.90;;;;;;4937525;28;20475;-70
2022/08/18 06:23:45;;;;;;;9.97;9.37;;;23.80;99.90;;;;;;4956827;28;20447;-66
2022/08/18 06:26:20;;;;;;;10.53;9.70;;;23.80;99.90;;;;;;4958341;28;20439;-66
2022/08/18 06:29:01;;;;;;;10.17;9.47;;;23.70;99.90;;;;;;4958418;28;20435;-66
2022/08/18 06:31:39;;;;;;;9.23;8.53;;;23.70;99.90;;;;;;4957866;28;20490;-66
2022/08/18 06:34:15;;;;;;;10.00;9.30;;;23.60;99.90;;;;;;4958016;28;20448;-66
2022/08/18 06:36:52;;;;;;;9.00;8.40;;;23.60;99.90;;;;;;4957974;28;20436;-65
2022/08/18 06:39:25;;;;;;;10.40;9.60;;;23.60;99.90;;;;;;4957955;28;20444;-65
2022/08/18 06:41:54;;;;;;;9.03;7.67;;;23.60;99.90;;;;;;4957443;28;20503;-66
2022/08/18 06:44:28;;;;;;;8.23;7.53;;;23.70;99.90;;;;;;4957803;28;20456;-66
2022/08/18 06:46:58;;;;;;;8.80;8.00;;;23.80;99.90;;;;;;4957914;28;20443;-66
2022/08/18 06:49:37;;;;;;;9.87;9.17;;;24.00;99.90;;;;;;4957589;28;20789;-66
2022/08/18 06:52:32;;;;;;;9.70;8.90;;;23.90;99.90;;;;;;4957644;28;20483;-65
2022/08/18 06:55:01;;;;;;;9.73;8.93;;;23.80;99.90;;;;;;4923629;28;20918;-65
2022/08/18 06:57:33;;;;;;;11.13;10.07;;;23.80;99.90;;;;;;4957583;28;20478;-65
2022/08/18 07:00:06;;;;;;;10.10;9.40;;;23.70;99.90;;;;;;4957596;28;20479;-65
2022/08/18 07:02:47;;;;;;;10.40;9.70;;;23.70;99.90;;;;;;4956874;28;20991;-65
2022/08/18 07:05:23;;;;;;;10.00;9.30;;;23.70;99.90;;;;;;4957354;28;20440;-65
2022/08/18 07:08:11;;;;;;;12.20;9.50;;;23.70;99.90;;;;;;4957499;28;20439;-67
2022/08/18 07:10:39;;;;;;;10.47;9.57;;;23.90;99.90;;;;;;4957201;28;20498;-67
2022/08/18 07:13:20;;;;;;;10.10;9.33;;;24.10;99.90;;;;;;4957303;28;20482;-66
2022/08/18 07:15:48;;;;;;;9.60;8.80;;;24.20;99.90;;;;;;4957158;28;20439;-66
2022/08/18 07:18:21;;;;;;;9.27;8.67;;;24.30;99.90;;;;;;4957422;28;20531;-67
2022/08/18 07:20:52;;;;;;;8.20;7.70;;;24.20;99.90;;;;;;4957551;28;20480;-66
2022/08/18 07:23:28;;;;;;;7.83;7.33;;;24.20;99.90;;;;;;4957127;28;20444;-66
2022/08/18 07:26:04;;;;;;;7.87;7.27;;;24.20;99.90;;;;;;4957034;28;20446;-66
2022/08/18 07:28:35;;;;;;;7.47;7.07;;;24.30;99.90;;;;;;4956685;28;20451;-66
2022/08/18 07:31:27;;;;;;;7.73;7.23;;;24.30;99.90;;;;;;4956956;28;20570;-66
2022/08/18 07:34:00;;;;;;;7.57;7.07;;;24.30;99.90;;;;;;4956581;28;20432;-66
2022/08/18 07:36:33;;;;;;;7.37;6.83;;;24.30;99.90;;;;;;4956566;28;20440;-66
2022/08/18 07:39:05;;;;;;;7.87;7.37;;;24.30;99.90;;;;;;4956896;28;20522;-66
2022/08/18 07:41:38;;;;;;;6.70;6.23;;;24.30;99.90;;;;;;4956788;28;20479;-65
2022/08/18 07:44:17;;;;;;;7.87;7.17;;;24.30;99.90;;;;;;4956878;28;20458;-66
2022/08/18 07:46:51;;;;;;;7.40;6.90;;;24.30;99.90;;;;;;4956640;28;20444;-66
2022/08/18 07:49:21;;;;;;;7.80;7.20;;;24.30;99.90;;;;;;4956813;28;20446;-66
2022/08/18 07:51:52;;;;;;;8.20;7.53;;;24.20;99.90;;;;;;4956319;28;20978;-66
2022/08/18 07:54:29;;;;;;;7.70;7.27;;;24.10;99.90;;;;;;4956581;28;20808;-67
2022/08/18 07:57:06;;;;;;;7.53;6.80;;;24.00;99.90;;;;;;4956310;28;20796;-69
2022/08/18 07:59:40;;;;;;;10.43;6.60;;;23.90;99.90;;;;;;4956527;28;20451;-68
2022/08/18 08:02:22;;;;;;;8.03;7.30;;;23.90;99.90;;;;;;4955931;28;20483;-68
2022/08/18 08:05:00;;;;;;;7.47;6.87;;;23.80;99.90;;;;;;4956576;28;20444;-68
2022/08/18 08:07:30;;;;;;;7.83;7.03;;;23.70;99.90;;;;;;4956049;28;20911;-68
2022/08/18 08:10:12;;;;;;;8.47;7.87;;;23.70;99.90;;;;;;4956361;28;20456;-67
2022/08/18 08:12:44;;;;;;;7.90;7.30;;;23.60;99.90;;;;;;4956517;28;20467;-67
2022/08/18 08:15:27;;;;;;;8.23;7.50;;;23.50;99.90;;;;;;4955827;28;20487;-66
2022/08/18 08:18:03;;;;;;;8.67;7.97;;;23.50;99.90;;;;;;4956257;28;20447;-66
2022/08/18 08:20:34;;;;;;;8.73;8.03;;;23.40;99.90;;;;;;4956399;28;20443;-66
2022/08/18 08:23:16;;;;;;;7.70;7.03;;;23.40;99.90;;;;;;4956289;28;20442;-66
2022/08/18 08:25:52;;;;;;;8.40;7.60;;;23.40;99.90;;;;;;4956171;28;20443;-66
2022/08/18 08:28:30;;;;;;;8.00;7.47;;;23.30;99.90;;;;;;4956138;28;20439;-66
2022/08/18 08:31:07;;;;;;;8.90;8.20;;;23.30;99.90;;;;;;4956010;28;20882;-66
2022/08/18 08:33:41;;;;;;;6.93;6.53;;;23.20;99.90;;;;;;4955679;28;20970;-66
2022/08/18 08:36:11;;;;;;;9.07;8.17;;;23.20;99.90;;;;;;4955895;28;20911;-66
2022/08/18 08:38:44;;;;;;;9.47;8.57;;;23.20;99.90;;;;;;4956423;28;20450;-67
2022/08/18 08:41:18;;;;;;;9.60;8.90;;;23.10;99.90;;;;;;4956443;29;20874;-67
2022/08/18 08:43:49;;;;;;;9.40;8.50;;;23.00;99.90;;;;;;4955919;28;20436;-66
2022/08/18 08:46:22;;;;;;;9.40;8.70;;;23.00;99.90;;;;;;4955907;28;20440;-66
2022/08/18 08:48:52;;;;;;;10.30;9.30;;;23.00;99.90;;;;;;4955954;28;20450;-67
2022/08/18 08:51:33;;;;;;;8.87;8.10;;;22.90;99.90;;;;;;4955905;28;20551;-66
2022/08/18 08:54:05;;;;;;;9.87;7.67;;;23.00;99.90;;;;;;4955950;28;20467;-66
2022/08/18 08:56:36;;;;;;;9.40;8.50;;;23.20;99.90;;;;;;4955740;28;20444;-66
2022/08/18 08:59:07;;;;;;;9.57;8.60;;;23.30;99.90;;;;;;4955770;28;20444;-66
2022/08/18 09:01:43;;;;;;;9.07;8.40;;;23.40;99.90;;;;;;4955948;28;20835;-66
2022/08/18 09:04:29;;;;;;;8.77;7.80;;;23.60;99.90;;;;;;4955732;28;20440;-66
2022/08/18 09:07:09;;;;;;;8.67;8.07;;;23.80;99.90;;;;;;4955756;28;20444;-67
2022/08/18 09:09:54;;;;;;;7.73;7.00;;;24.00;99.90;;;;;;4955917;28;20440;-66
2022/08/18 09:12:48;;;;;;;8.67;7.97;;;24.30;99.90;;;;;;4955622;28;20483;-66
2022/08/18 09:15:41;;;;;;;8.97;8.27;;;24.50;99.90;;;;;;4955761;28;20448;-66
2022/08/18 09:18:43;;;;;;;8.67;8.07;;;24.70;99.90;;;;;;4955689;28;20851;-66
2022/08/18 09:21:34;;;;;;;9.07;8.30;;;25.20;99.90;;;;;;4924801;28;20475;-67
2022/08/18 09:24:12;;;;;;;9.53;8.73;;;25.40;99.90;;;;;;4955484;28;20460;-66
2022/08/18 09:26:42;;;;;;;8.43;7.93;;;25.50;99.90;;;;;;4955523;28;20439;-67
2022/08/18 09:29:23;;;;;;;8.10;7.60;;;25.70;99.90;;;;;;4955511;28;20439;-67
2022/08/18 09:32:35;;;;;;;9.63;8.80;;;25.90;99.90;;;;;;4956003;28;20479;-67
2022/08/18 09:35:14;;;;;;;9.77;8.90;;;26.00;99.90;;;;;;4955034;28;20963;-67
2022/08/18 09:41:30;;;;;;;8.87;8.20;;;25.90;99.90;;;;;;4955067;28;20911;-67
2022/08/18 09:43:34;;;;;;;10.73;9.00;;;25.60;99.90;;;;;;4955127;29;20803;-66
2022/08/18 09:46:04;;;;;;;21.40;10.33;;;25.60;99.90;;;;;;4956176;28;20447;-67
2022/08/18 09:48:34;;;;;;;9.60;8.90;;;25.60;99.90;;;;;;4955292;28;20480;-67
2022/08/18 09:51:22;;;;;;;8.93;8.23;;;25.40;99.90;;;;;;4955259;28;20895;-67
2022/08/18 09:54:12;;;;;;;9.30;8.50;;;25.60;99.90;;;;;;4955456;28;20468;-67
2022/08/18 09:57:16;;;;;;;9.43;8.73;;;25.90;99.90;;;;;;4954991;28;20857;-67
2022/08/18 10:00:19;;;;;;;9.10;8.50;;;26.70;99.90;;;;;;4958568;28;20475;-67
2022/08/18 10:03:23;;;;;;;7.57;7.10;;;28.00;99.90;;;;;;4958356;28;20518;-67
2022/08/18 10:06:17;;;;;;;8.50;7.80;;;29.50;99.90;;;;;;4958584;28;20447;-67
2022/08/18 10:09:14;;;;;;;8.73;8.13;;;30.10;99.90;;;;;;4958164;28;20435;-67
2022/08/18 10:11:56;;;;;;;8.60;8.00;;;31.30;99.90;;;;;;4958042;28;20482;-67
2022/08/18 10:14:44;;;;;;;7.70;7.23;;;31.60;96.40;;;;;;4958416;28;20459;-67
2022/08/18 10:17:18;;;;;;;9.90;9.17;;;31.80;95.60;;;;;;4958037;28;20802;-67
2022/08/18 10:19:54;;;;;;;9.17;8.47;;;31.70;95.90;;;;;;4958518;28;20443;-67
2022/08/18 10:22:38;;;;;;;8.90;8.33;;;31.80;95.00;;;;;;4958109;28;20482;-67
2022/08/18 10:25:10;;;;;;;8.37;7.77;;;31.90;94.50;;;;;;4957827;28;20440;-67
2022/08/18 10:27:49;;;;;;;9.10;8.50;;;31.90;93.70;;;;;;4958150;28;20471;-67
2022/08/18 10:30:46;;;;;;;9.10;8.50;;;31.90;92.90;;;;;;4958007;28;20439;-67
2022/08/18 10:33:33;;;;;;;9.73;9.10;;;32.10;91.90;;;;;;4957901;28;20484;-68
2022/08/18 10:36:00;;;;;;;10.50;9.77;;;31.80;91.90;;;;;;4957638;28;20515;-67
2022/08/18 10:38:48;;;;;;;9.70;8.60;;;31.80;93.70;;;;;;4957595;28;20877;-68
2022/08/18 10:41:25;;;;;;;9.27;8.67;;;32.00;91.40;;;;;;4957815;28;20486;-68
2022/08/18 10:43:53;;;;;;;10.40;9.10;;;31.90;90.50;;;;;;4958513;28;20447;-68
2022/08/18 10:46:22;;;;;;;9.67;8.87;;;31.90;91.60;;;;;;4957653;28;20943;-66
2022/08/18 10:49:15;;;;;;;10.03;9.27;;;32.20;90.30;;;;;;4958081;28;20555;-67
2022/08/18 10:52:00;;;;;;;11.65;10.73;;;32.10;90.00;;;;;;4957443;28;20463;-67
2022/08/18 10:54:39;;;;;;;12.88;9.30;;;32.10;89.70;;;;;;4957475;28;20539;-68
2022/08/18 10:57:17;;;;;;;9.50;8.80;;;32.30;88.60;;;;;;4957381;28;20184;-67
2022/08/18 10:59:50;;;;;;;10.33;9.53;;;32.30;90.10;;;;;;4957950;28;20448;-67
2022/08/18 11:02:40;;;;;;;11.43;10.63;;;32.40;87.80;;;;;;4957290;28;20483;-67
2022/08/18 11:05:10;;;;;;;10.43;9.63;;;31.60;87.90;;;;;;4957573;28;20450;-67
2022/08/18 11:07:42;;;;;;;9.60;9.00;;;31.40;91.10;;;;;;4957199;28;20447;-67
2022/08/18 11:10:17;;;;;;;10.63;9.90;;;31.90;91.00;;;;;;4956719;28;20459;-67
2022/08/18 11:13:02;;;;;;;10.87;10.10;;;32.20;87.20;;;;;;4957508;28;20463;-67
2022/08/18 11:15:37;;;;;;;10.90;10.10;;;31.90;89.10;;;;;;4957357;28;20806;-68
2022/08/18 11:18:16;;;;;;;11.00;10.30;;;31.80;89.50;;;;;;4957357;28;20466;-67
2022/08/18 11:20:43;;;;;;;12.13;11.03;;;31.60;89.60;;;;;;4957155;28;20486;-66
2022/08/18 11:23:14;;;;;;;11.00;10.30;;;31.10;88.60;;;;;;4957264;28;20456;-65
2022/08/18 11:25:41;;;;;;;12.40;11.60;;;31.00;90.30;;;;;;4957187;28;20463;-64
2022/08/18 11:28:17;;;;;;;12.00;11.07;;;30.60;90.00;;;;;;4957253;28;20510;-65
2022/08/18 11:30:47;;;;;;;11.73;11.00;;;30.30;90.60;;;;;;4957218;28;20475;-65
2022/08/18 11:33:16;;;;;;;9.00;8.40;;;30.20;91.40;;;;;;4956764;28;20479;-65
2022/08/18 11:35:48;;;;;;;10.60;9.90;;;30.00;92.00;;;;;;4956940;28;20466;-65
2022/08/18 11:38:18;;;;;;;10.40;9.60;;;29.50;92.10;;;;;;4956986;28;20958;-65
2022/08/18 11:40:47;;;;;;;11.30;10.30;;;29.20;92.90;;;;;;4956792;28;20476;-65
2022/08/18 11:43:19;;;;;;;10.20;9.60;;;29.20;93.20;;;;;;4956539;28;20455;-69
2022/08/18 11:45:52;;;;;;;11.93;11.13;;;29.10;92.90;;;;;;4956461;28;20930;-65
2022/08/18 11:48:24;;;;;;;11.17;10.37;;;28.90;93.00;;;;;;4956392;28;20512;-65
2022/08/18 11:51:01;;;;;;;11.20;10.23;;;28.60;94.30;;;;;;4956934;28;20534;-66
2022/08/18 11:53:42;;;;;;;10.20;9.50;;;28.50;95.10;;;;;;4956594;28;20840;-66
2022/08/18 11:56:17;;;;;;;9.97;9.33;;;28.60;95.30;;;;;;4956675;28;20448;-66
2022/08/18 11:58:47;;;;;;;10.67;9.70;;;28.90;94.90;;;;;;4956494;28;20451;-66
2022/08/18 12:01:37;;;;;;;11.70;10.70;;;29.10;94.80;;;;;;4956196;28;20489;-65
2022/08/18 12:04:16;;;;;;;10.00;9.40;;;29.10;93.40;;;;;;4956123;28;20990;-66
2022/08/18 12:06:59;;;;;;;9.13;8.63;;;29.00;93.00;;;;;;4956868;28;20450;-65
2022/08/18 12:09:33;;;;;;;9.43;8.83;;;29.10;94.30;;;;;;4956236;28;20922;-65
2022/08/18 12:12:02;;;;;;;10.57;9.87;;;29.30;93.60;;;;;;4955922;28;20991;-65
2022/08/18 12:14:50;;;;;;;8.63;8.13;;;29.40;94.10;;;;;;4956416;28;20502;-65
2022/08/18 12:17:17;;;;;;;8.83;8.23;;;29.70;92.70;;;;;;4956709;28;20447;-65
2022/08/18 12:19:47;;;;;;;9.97;9.17;;;29.90;91.20;;;;;;4956756;28;20464;-66
2022/08/18 12:22:17;;;;;;;9.73;9.10;;;30.00;91.20;;;;;;4956054;28;21033;-71
2022/08/18 12:24:44;;;;;;;9.20;8.60;;;30.10;91.60;;;;;;4956170;28;20452;-64
2022/08/18 12:27:13;;;;;;;10.50;9.63;;;30.20;90.90;;;;;;4956679;28;20459;-64
2022/08/18 12:29:41;;;;;;;9.10;8.40;;;30.20;90.90;;;;;;4955699;28;20510;-65
2022/08/18 12:32:08;;;;;;;10.77;9.70;;;30.00;90.60;;;;;;4956375;28;20479;-64
2022/08/18 12:34:35;;;;;;;10.70;9.93;;;30.00;90.70;;;;;;4956111;28;20547;-65
2022/08/18 12:37:02;;;;;;;10.20;9.50;;;29.80;90.70;;;;;;4956156;28;20459;-65
2022/08/18 12:39:30;;;;;;;10.37;9.50;;;29.90;91.80;;;;;;4956266;28;20459;-65
2022/08/18 12:41:57;;;;;;;10.83;9.93;;;30.00;91.70;;;;;;4956499;28;20484;-66
2022/08/18 12:44:24;;;;;;;9.90;9.10;;;30.10;90.80;;;;;;4956351;28;20455;-65
2022/08/18 12:46:52;;;;;;;10.90;9.90;;;29.90;90.80;;;;;;4955664;28;20943;-65
2022/08/18 12:49:21;;;;;;;9.27;8.40;;;29.80;91.40;;;;;;4955861;28;20451;-65
2022/08/18 12:51:48;;;;;;;10.83;10.03;;;29.80;91.50;;;;;;4955772;28;20484;-64
2022/08/18 12:54:15;;;;;;;10.57;9.87;;;29.70;91.20;;;;;;4955745;28;20479;-65
2022/08/18 12:56:42;;;;;;;10.43;9.33;;;29.70;91.20;;;;;;4955536;28;20455;-65
2022/08/18 12:59:10;;;;;;;10.10;9.27;;;29.60;91.30;;;;;;4956717;28;20462;-65
2022/08/18 13:01:38;;;;;;;11.53;10.63;;;29.70;91.60;;;;;;4955536;28;20526;-65
2022/08/18 13:04:07;;;;;;;9.57;8.80;;;29.60;91.50;;;;;;4955486;28;20463;-64
2022/08/18 13:06:39;;;;;;;8.73;8.00;;;29.30;92.20;;;;;;4955416;28;20970;-64
2022/08/18 13:09:07;;;;;;;8.97;8.37;;;29.30;91.40;;;;;;4955864;28;20444;-65
2022/08/18 13:11:34;;;;;;;7.93;7.20;;;29.50;90.60;;;;;;4955919;28;20480;-65
2022/08/18 13:14:00;;;;;;;8.50;7.80;;;29.20;90.80;;;;;;4955861;28;20480;-65
2022/08/18 13:16:30;;;;;;;9.03;8.33;;;29.10;90.70;;;;;;4956410;28;20581;-64
2022/08/18 13:18:57;;;;;;;8.70;8.10;;;29.10;91.00;;;;;;4955870;28;20985;-64
2022/08/18 13:21:25;;;;;;;7.40;6.90;;;29.10;90.60;;;;;;4955290;28;20486;-64
2022/08/18 13:23:52;;;;;;;8.07;7.50;;;29.30;91.50;;;;;;4955386;28;20451;-64
2022/08/18 13:26:24;;;;;;;9.33;7.37;;;29.40;90.10;;;;;;4955730;28;20482;-64
2022/08/18 13:28:51;;;;;;;9.73;8.83;;;29.30;90.50;;;;;;4955632;28;20440;-64
2022/08/18 13:31:18;;;;;;;8.50;8.00;;;29.30;91.10;;;;;;4956614;28;20479;-64
2022/08/18 13:33:44;;;;;;;8.70;8.10;;;29.30;91.70;;;;;;4962621;28;20858;-64
2022/08/18 13:36:11;;;;;;;9.13;8.43;;;29.40;91.00;;;;;;4963995;28;20458;-65
2022/08/18 13:38:41;;;;;;;8.17;7.67;;;29.70;92.20;;;;;;4959501;28;20482;-64
2022/08/18 13:41:09;;;;;;;7.77;7.27;;;29.90;90.20;;;;;;4959858;28;20832;-64
2022/08/18 13:43:38;;;;;;;8.13;7.43;;;30.00;88.70;;;;;;4958850;28;20935;-64
2022/08/18 13:46:05;;;;;;;8.70;7.97;;;30.10;88.60;;;;;;4959018;28;20455;-64
2022/08/18 13:48:32;;;;;;;7.73;7.33;;;30.30;87.80;;;;;;4958950;28;20459;-63
2022/08/18 13:51:01;;;;;;;8.10;7.40;;;30.40;89.00;;;;;;4958938;28;20475;-63
2022/08/18 13:53:30;;;;;;;9.70;7.50;;;30.50;87.20;;;;;;4958950;28;20455;-64
2022/08/18 13:55:58;;;;;;;8.63;8.03;;;30.70;86.70;;;;;;4958898;28;20801;-63
2022/08/18 13:58:25;;;;;;;8.83;8.23;;;30.70;87.40;;;;;;4958922;28;20493;-62
2022/08/18 14:00:57;;;;;;;7.13;6.73;;;30.60;86.60;;;;;;4958442;28;20475;-62
2022/08/18 14:03:24;;;;;;;8.97;8.27;;;30.50;86.30;;;;;;4958640;28;20444;-62
2022/08/18 14:05:52;;;;;;;8.43;7.73;;;30.50;86.10;;;;;;4958254;28;20947;-62
2022/08/18 14:08:19;;;;;;;7.80;7.37;;;30.70;84.90;;;;;;4958538;28;20551;-62
2022/08/18 14:10:47;;;;;;;8.07;7.20;;;30.60;84.40;;;;;;4958504;28;20475;-62
2022/08/18 14:13:16;;;;;;;8.07;7.57;;;30.50;85.40;;;;;;4958156;28;20815;-62
2022/08/18 14:15:44;;;;;;;8.37;7.87;;;30.40;84.00;;;;;;4958253;28;20458;-63
2022/08/18 14:18:11;;;;;;;8.10;7.60;;;30.20;84.40;;;;;;4959147;28;20546;-62
2022/08/18 14:28:51;;;;;;;7.13;6.53;;;29.80;87.20;;;;;;4958161;29;20415;-63
2022/08/18 14:31:18;;;;;;;6.90;6.40;;;30.00;84.90;;;;;;4958280;28;20884;-62
2022/08/18 14:33:45;;;;;;;8.03;7.23;;;30.10;84.00;;;;;;4958061;28;20491;-62
2022/08/18 14:36:13;;;;;;;8.20;7.40;;;30.30;84.30;;;;;;4958078;28;20482;-62
2022/08/18 14:38:40;;;;;;;7.30;6.90;;;30.40;81.90;;;;;;4958000;28;20467;-64
2022/08/18 14:41:11;;;;;;;7.23;6.77;;;30.60;82.30;;;;;;4957964;28;20479;-63
2022/08/18 14:43:38;;;;;;;8.30;7.60;;;30.70;81.50;;;;;;4957825;28;20443;-63
2022/08/18 14:46:06;;;;;;;7.80;7.20;;;30.70;81.20;;;;;;4956929;28;20455;-63
2022/08/18 14:48:35;;;;;;;8.07;7.47;;;30.70;81.40;;;;;;4957810;28;20455;-63
2022/08/18 14:51:02;;;;;;;8.10;7.40;;;30.60;80.80;;;;;;4957561;28;20572;-62
2022/08/18 14:53:32;;;;;;;8.20;7.43;;;30.30;82.20;;;;;;4957517;28;20455;-63
2022/08/18 14:55:59;;;;;;;8.13;7.43;;;30.40;83.00;;;;;;4957724;28;20482;-63
2022/08/18 14:58:28;;;;;;;7.30;6.80;;;30.50;82.20;;;;;;4957467;28;20447;-63
2022/08/18 15:00:55;;;;;;;7.30;6.90;;;30.40;81.90;;;;;;4957296;28;20479;-62
2022/08/18 15:03:26;;;;;;;9.60;7.67;;;30.30;82.90;;;;;;4957456;28;20930;-62
2022/08/18 15:05:53;;;;;;;7.37;6.77;;;30.30;83.90;;;;;;4957363;28;20947;-62
2022/08/18 15:08:20;;;;;;;8.10;7.60;;;30.10;83.70;;;;;;4957597;28;20459;-62
2022/08/18 15:10:47;;;;;;;8.03;7.33;;;30.00;83.70;;;;;;4957576;28;20622;-63
2022/08/18 15:13:14;;;;;;;8.77;7.20;;;30.00;84.00;;;;;;4956976;28;20455;-62
2022/08/18 15:15:42;;;;;;;7.50;7.00;;;29.90;84.10;;;;;;4957098;28;20479;-63
2022/08/18 15:18:09;;;;;;;11.47;8.03;;;30.10;85.00;;;;;;4957247;28;20471;-62
2022/08/18 15:25:40;;;;;;;8.10;7.40;;;30.10;84.20;;;;;;4956800;28;20463;-62
2022/08/18 15:26:11;;;;;;;7.60;7.10;;;30.00;82.70;;;;;;4956816;29;20520;-62
2022/08/18 15:28:38;;;;;;;7.67;7.17;;;30.00;82.80;;;;;;4957013;28;20440;-62
2022/08/18 15:31:06;;;;;;;7.60;7.00;;;30.00;84.60;;;;;;4956579;28;21008;-62
2022/08/18 15:33:33;;;;;;;7.47;6.87;;;29.90;82.50;;;;;;4956813;28;20970;-62
2022/08/18 15:36:03;;;;;;;8.17;7.47;;;29.80;81.90;;;;;;4956959;28;20483;-63
2022/08/18 15:38:30;;;;;;;8.97;8.27;;;29.60;84.60;;;;;;4956861;28;20466;-63
2022/08/18 15:41:02;;;;;;;7.73;7.07;;;29.70;84.50;;;;;;4956711;28;20475;-63
2022/08/18 15:43:30;;;;;;;8.00;7.50;;;29.70;84.40;;;;;;4956653;28;20896;-63
2022/08/18 15:45:58;;;;;;;7.47;6.87;;;29.50;84.00;;;;;;4956908;28;20456;-63
2022/08/18 15:48:26;;;;;;;7.23;6.60;;;29.50;83.40;;;;;;4957021;28;20456;-62
2022/08/18 15:50:53;;;;;;;7.63;7.13;;;29.30;84.10;;;;;;4956970;28;20562;-62
2022/08/18 15:53:25;;;;;;;7.73;7.20;;;29.20;85.10;;;;;;4956527;28;20558;-64
2022/08/18 15:55:52;;;;;;;8.57;7.80;;;29.10;85.20;;;;;;4956464;28;20828;-64
2022/08/18 15:58:20;;;;;;;8.10;7.40;;;29.00;85.80;;;;;;4956446;28;20459;-64
2022/08/18 16:00:47;;;;;;;7.93;7.43;;;28.80;86.40;;;;;;4956437;28;20840;-64
2022/08/18 16:03:16;;;;;;;8.83;8.13;;;28.50;87.00;;;;;;4956773;28;20487;-64
2022/08/18 16:05:50;;;;;;;9.63;8.90;;;28.50;87.30;;;;;;4956494;28;20463;-64
2022/08/18 16:08:18;;;;;;;7.67;6.97;;;28.50;87.30;;;;;;4956314;28;20535;-63
2022/08/18 16:10:47;;;;;;;8.17;7.57;;;28.60;87.10;;;;;;4956117;28;20487;-64
2022/08/18 16:13:14;;;;;;;9.73;7.53;;;28.60;86.90;;;;;;4956071;28;20467;-63
2022/08/18 16:15:45;;;;;;;7.60;7.10;;;28.60;87.30;;;;;;4955780;28;20540;-63
2022/08/18 16:18:12;;;;;;;8.17;7.67;;;28.50;86.60;;;;;;4956242;28;20448;-63
2022/08/18 16:20:39;;;;;;;7.57;7.07;;;28.40;87.20;;;;;;4956147;28;20475;-63
2022/08/18 16:23:06;;;;;;;7.53;7.03;;;28.20;87.00;;;;;;4956117;28;20487;-63
2022/08/18 16:25:37;;;;;;;7.67;7.07;;;28.20;88.20;;;;;;4956389;28;20452;-63
2022/08/18 16:28:07;;;;;;;7.73;7.10;;;28.30;87.70;;;;;;4955854;28;20436;-63
2022/08/18 16:30:34;;;;;;;7.70;7.20;;;28.50;87.60;;;;;;4955720;28;20456;-63
2022/08/18 16:33:02;;;;;;;10.53;7.10;;;28.30;86.80;;;;;;4955864;28;20451;-62
2022/08/18 16:35:29;;;;;;;12.02;7.20;;;28.20;86.60;;;;;;4955779;28;20955;-62
2022/08/18 16:38:01;;;;;;;8.10;6.93;;;28.20;87.80;;;;;;4955930;28;20211;-62
2022/08/18 16:40:28;;;;;;;7.80;7.13;;;28.10;87.30;;;;;;4955835;28;20440;-63
2022/08/18 16:42:55;;;;;;;7.10;6.60;;;28.00;87.60;;;;;;4955828;28;20554;-62
2022/08/18 16:45:23;;;;;;;8.30;6.87;;;28.00;87.30;;;;;;4956046;28;20447;-62
2022/08/18 16:47:50;;;;;;;7.50;6.97;;;27.90;88.40;;;;;;4956044;28;20990;-64
2022/08/18 16:50:18;;;;;;;7.60;7.00;;;27.90;88.10;;;;;;4957814;28;20462;-63
2022/08/18 16:52:44;;;;;;;8.13;7.50;;;27.80;88.30;;;;;;4959753;28;20463;-63
2022/08/18 16:55:12;;;;;;;8.90;8.27;;;27.80;90.00;;;;;;4959905;28;20540;-64
2022/08/18 17:06:05;;;;;;;9.70;9.10;;;27.30;93.00;;;;;;4921238;28;20564;-65
2022/08/18 17:08:33;;;;;;;10.83;9.83;;;27.30;93.50;;;;;;4957814;28;20459;-64
2022/08/18 17:11:00;;;;;;;9.67;9.07;;;27.20;94.10;;;;;;4959827;28;20475;-65
2022/08/18 17:13:27;;;;;;;10.00;9.07;;;27.00;95.10;;;;;;4959462;28;20966;-64
2022/08/18 17:15:55;;;;;;;10.73;9.80;;;26.90;95.40;;;;;;4959542;28;20483;-63
2022/08/18 17:18:23;;;;;;;10.57;9.97;;;26.80;96.10;;;;;;4959481;28;20810;-64
2022/08/18 17:20:50;;;;;;;14.40;12.07;;;26.80;96.30;;;;;;4959364;28;20475;-63
2022/08/18 17:23:17;;;;;;;10.17;9.37;;;26.70;96.90;;;;;;4959359;29;20455;-63
2022/08/18 17:25:45;;;;;;;12.10;11.10;;;26.70;96.80;;;;;;4959334;28;20456;-63
2022/08/18 17:28:12;;;;;;;11.73;10.93;;;26.60;97.10;;;;;;4959333;28;20459;-63
2022/08/18 17:30:44;;;;;;;11.93;10.90;;;26.50;97.70;;;;;;4959292;28;20502;-64
2022/08/18 17:33:16;;;;;;;12.03;10.83;;;26.40;98.20;;;;;;4959067;28;20446;-66
2022/08/18 17:35:44;;;;;;;11.10;10.30;;;26.40;99.60;;;;;;4959465;28;20467;-66
2022/08/18 17:38:18;;;;;;;11.33;10.53;;;26.30;98.80;;;;;;4959063;28;20455;-63